createdAt,value
2023-03-21T00:01:54.169Z,24.58
2023-03-21T00:06:53.162Z,16.40
2023-03-21T00:09:21.350Z,17.30
2023-03-21T00:11:49.264Z,17.23
2023-03-21T00:14:18.752Z,18.02
2023-03-21T00:16:50.623Z,18.40
2023-03-21T00:19:20.815Z,18.85
2023-03-21T00:22:08.694Z,17.50
2023-03-21T00:24:38.084Z,19.10
2023-03-21T00:27:33.676Z,20.13
2023-03-21T00:29:53.516Z,20.67
2023-03-21T00:32:22.796Z,19.95
2023-03-21T00:35:43.676Z,21.70
2023-03-21T00:37:38.404Z,19.35
2023-03-21T00:40:16.373Z,17.23
2023-03-21T00:42:47.112Z,18.33
2023-03-21T00:45:15.546Z,19.55
2023-03-21T00:47:43.556Z,17.85
2023-03-21T00:50:11.891Z,22.30
2023-03-21T00:52:41.327Z,17.08
2023-03-21T00:55:15.113Z,19.23
2023-03-21T00:57:45.332Z,20.02
2023-03-21T01:00:17.908Z,20.05
2023-03-21T01:03:02.733Z,18.73
2023-03-21T01:05:58.205Z,19.70
2023-03-21T01:08:33.163Z,22.27
2023-03-21T01:11:12.240Z,22.23
2023-03-21T01:13:47.491Z,19.25
2023-03-21T01:16:20.973Z,19.98
2023-03-21T01:18:48.596Z,21.70
2023-03-21T01:21:16.150Z,25.35
2023-03-21T01:23:44.752Z,23.98
2023-03-21T01:26:13.535Z,23.88
2023-03-21T01:28:43.422Z,24.13
2023-03-21T01:31:13.836Z,25.88
2023-03-21T01:33:42.272Z,26.85
2023-03-21T01:36:15.163Z,28.52
2023-03-21T01:38:44.296Z,28.60
2023-03-21T01:41:26.154Z,27.58
2023-03-21T01:43:54.133Z,28.75
2023-03-21T01:46:51.512Z,30.48
2023-03-21T01:49:35.780Z,27.45
2023-03-21T01:52:18.939Z,34.42
2023-03-21T01:54:54.475Z,28.38
2023-03-21T01:57:43.735Z,28.73
2023-03-21T02:02:52.604Z,32.20
2023-03-21T02:05:28.330Z,30.75
2023-03-21T02:07:55.913Z,30.95
2023-03-21T02:10:23.525Z,32.35
2023-03-21T02:12:51.174Z,33.67
2023-03-21T02:15:18.832Z,31.33
2023-03-21T02:17:56.700Z,35.95
2023-03-21T02:20:46.590Z,33.75
2023-03-21T02:23:46.114Z,32.10
2023-03-21T02:26:42.488Z,30.13
2023-03-21T02:29:44.803Z,35.42
2023-03-21T02:32:37.452Z,30.55
2023-03-21T02:35:39.139Z,35.17
2023-03-21T02:38:16.832Z,27.95
2023-03-21T02:41:18.017Z,26.52
2023-03-21T02:43:58.308Z,30.98
2023-03-21T02:47:02.912Z,30.02
2023-03-21T02:49:53.493Z,33.63
2023-03-21T02:52:37.913Z,28.75
2023-03-21T02:55:13.813Z,29.15
2023-03-21T02:57:44.510Z,27.10
2023-03-21T03:00:17.854Z,29.90
2023-03-21T03:02:47.570Z,23.92
2023-03-21T03:05:21.519Z,27.25
2023-03-21T03:08:08.046Z,27.20
2023-03-21T03:10:44.694Z,34.38
2023-03-21T03:13:22.495Z,30.63
2023-03-21T03:16:11.453Z,23.75
2023-03-21T03:18:53.928Z,31.75
2023-03-21T03:21:42.211Z,26.83
2023-03-21T03:24:20.182Z,23.83
2023-03-21T03:27:01.852Z,28.33
2023-03-21T03:29:32.494Z,27.02
2023-03-21T03:32:09.732Z,24.45
2023-03-21T03:34:41.540Z,20.80
2023-03-21T03:37:14.071Z,22.38
2023-03-21T03:39:48.776Z,22.17
2023-03-21T03:42:28.009Z,24.17
2023-03-21T03:44:56.939Z,20.23
2023-03-21T03:47:50.714Z,21.83
2023-03-21T03:50:48.235Z,22.70
2023-03-21T03:53:24.806Z,19.38
2023-03-21T03:55:56.296Z,25.25
2023-03-21T03:58:36.084Z,20.52
2023-03-21T04:01:08.442Z,26.80
2023-03-21T04:03:48.874Z,21.88
2023-03-21T04:06:18.965Z,28.88
2023-03-21T04:08:46.545Z,20.15
2023-03-21T04:11:17.460Z,20.08
2023-03-21T04:13:44.973Z,28.38
2023-03-21T04:16:12.970Z,22.92
2023-03-21T04:18:41.839Z,19.85
2023-03-21T04:21:14.292Z,24.77
2023-03-21T04:23:42.440Z,29.35
2023-03-21T04:26:10.369Z,27.35
2023-03-21T04:28:38.120Z,29.70
2023-03-21T04:31:22.719Z,31.00
2023-03-21T04:33:52.325Z,29.98
2023-03-21T04:36:27.268Z,34.22
2023-03-21T04:38:57.149Z,29.15
2023-03-21T04:41:24.693Z,37.63
2023-03-21T04:43:52.580Z,31.15
2023-03-21T04:46:20.275Z,32.40
2023-03-21T04:48:48.891Z,34.60
2023-03-21T04:51:17.325Z,29.85
2023-03-21T04:53:46.948Z,31.92
2023-03-21T04:56:14.460Z,29.17
2023-03-21T04:58:43.138Z,29.33
2023-03-21T05:01:10.825Z,30.80
2023-03-21T05:03:40.303Z,29.65
2023-03-21T05:06:09.414Z,31.27
2023-03-21T05:08:37.861Z,30.15
2023-03-21T05:11:05.788Z,28.25
2023-03-21T05:13:33.259Z,35.92
2023-03-21T05:16:00.813Z,30.60
2023-03-21T05:18:28.378Z,29.02
2023-03-21T05:20:58.015Z,32.47
2023-03-21T05:23:25.889Z,28.02
2023-03-21T05:25:53.372Z,26.88
2023-03-21T05:28:20.918Z,30.27
2023-03-21T05:30:48.521Z,30.08
2023-03-21T05:33:16.199Z,26.88
2023-03-21T05:35:43.761Z,29.23
2023-03-21T05:38:11.324Z,28.38
2023-03-21T05:40:38.831Z,25.48
2023-03-21T05:43:06.327Z,26.48
2023-03-21T05:45:33.915Z,24.25
2023-03-21T05:48:01.448Z,27.10
2023-03-21T05:50:29.507Z,26.77
2023-03-21T05:52:57.204Z,28.25
2023-03-21T05:55:24.774Z,24.92
2023-03-21T05:57:52.324Z,25.63
2023-03-21T06:00:22.093Z,25.58
2023-03-21T06:02:49.809Z,19.73
2023-03-21T06:05:17.448Z,27.08
2023-03-21T06:07:45.376Z,24.10
2023-03-21T06:10:12.955Z,24.17
2023-03-21T06:12:40.447Z,26.30
2023-03-21T06:15:08.797Z,28.75
2023-03-21T06:17:36.345Z,23.25
2023-03-21T06:20:05.415Z,24.27
2023-03-21T06:22:34.109Z,30.60
2023-03-21T06:25:01.677Z,22.35
2023-03-21T06:27:29.270Z,23.23
2023-03-21T06:29:57.982Z,21.13
2023-03-21T06:32:26.098Z,24.35
2023-03-21T06:34:54.051Z,26.70
2023-03-21T06:37:21.604Z,33.00
2023-03-21T06:39:49.059Z,21.33
2023-03-21T06:42:16.965Z,17.70
2023-03-21T06:44:44.660Z,20.05
2023-03-21T06:47:12.218Z,25.33
2023-03-21T06:49:40.988Z,20.58
2023-03-21T06:52:08.504Z,27.70
2023-03-21T06:54:36.184Z,21.92
2023-03-21T06:57:04.304Z,31.08
2023-03-21T06:59:31.815Z,17.98
2023-03-21T07:01:59.834Z,16.48
2023-03-21T07:04:28.252Z,23.48
2023-03-21T07:06:56.003Z,18.48
2023-03-21T07:09:24.677Z,24.25
2023-03-21T07:11:53.947Z,19.70
2023-03-21T07:14:22.833Z,22.45
2023-03-21T07:16:50.854Z,17.52
2023-03-21T07:19:18.518Z,19.23
2023-03-21T07:21:46.260Z,16.60
2023-03-21T07:24:13.836Z,16.38
2023-03-21T07:26:41.366Z,20.85
2023-03-21T07:29:08.966Z,18.25
2023-03-21T07:31:36.650Z,19.42
2023-03-21T07:34:04.331Z,21.23
2023-03-21T07:36:31.928Z,15.05
2023-03-21T07:38:59.418Z,22.20
2023-03-21T07:41:26.987Z,21.17
2023-03-21T07:43:54.498Z,21.45
2023-03-21T07:46:22.113Z,22.65
2023-03-21T07:48:49.658Z,24.55
2023-03-21T07:51:17.395Z,20.55
2023-03-21T07:53:48.455Z,18.42
2023-03-21T07:56:15.978Z,17.33
2023-03-21T07:58:43.585Z,17.48
2023-03-21T08:01:11.184Z,16.67
2023-03-21T08:03:38.786Z,25.42
2023-03-21T08:06:06.755Z,22.20
2023-03-21T08:08:34.478Z,19.17
2023-03-21T08:11:02.087Z,22.52
2023-03-21T08:13:29.609Z,18.92
2023-03-21T08:15:57.205Z,17.10
2023-03-21T08:18:24.799Z,15.90
2023-03-21T08:20:58.433Z,17.83
2023-03-21T08:23:26.498Z,16.92
2023-03-21T08:25:55.868Z,16.45
2023-03-21T08:28:24.425Z,18.05
2023-03-21T08:30:52.221Z,16.85
2023-03-21T08:33:20.227Z,27.00
2023-03-21T08:35:48.067Z,17.85
2023-03-21T08:38:16.057Z,18.95
2023-03-21T08:40:43.709Z,17.75
2023-03-21T08:43:12.707Z,16.77
2023-03-21T08:45:41.968Z,14.70
2023-03-21T08:48:09.530Z,18.33
2023-03-21T08:50:37.410Z,14.63
2023-03-21T08:53:05.618Z,18.02
2023-03-21T08:55:34.910Z,12.98
2023-03-21T08:58:02.671Z,15.13
2023-03-21T09:00:30.705Z,11.55
2023-03-21T09:02:58.848Z,13.70
2023-03-21T09:05:28.159Z,16.02
2023-03-21T09:07:55.696Z,9.55
2023-03-21T09:10:24.590Z,11.55
2023-03-21T09:12:54.477Z,9.95
2023-03-21T09:15:24.992Z,13.73
2023-03-21T09:17:54.519Z,11.77
2023-03-21T09:20:30.561Z,12.32
2023-03-21T09:22:58.769Z,12.35
2023-03-21T09:25:29.575Z,13.70
2023-03-21T09:27:58.167Z,11.45
2023-03-21T09:30:26.541Z,10.52
2023-03-21T09:32:55.773Z,12.45
2023-03-21T09:35:24.345Z,15.90
2023-03-21T09:37:52.342Z,11.32
2023-03-21T09:40:47.967Z,17.75
2023-03-21T09:43:24.387Z,15.93
2023-03-21T09:46:10.188Z,12.70
2023-03-21T09:49:10.668Z,18.52
2023-03-21T09:51:43.005Z,12.10
2023-03-21T09:56:47.264Z,15.85
2023-03-21T09:59:27.485Z,13.02
2023-03-21T10:01:55.391Z,14.23
2023-03-21T10:04:23.363Z,15.88
2023-03-21T10:06:59.653Z,18.90
2023-03-21T10:09:29.510Z,16.17
2023-03-21T10:12:02.809Z,19.65
2023-03-21T10:14:42.384Z,15.82
2023-03-21T10:17:19.080Z,13.30
2023-03-21T10:19:48.308Z,16.10
2023-03-21T10:22:16.015Z,14.25
2023-03-21T10:24:43.592Z,17.77
2023-03-21T10:27:13.313Z,11.00
2023-03-21T10:29:45.469Z,12.98
2023-03-21T10:32:17.156Z,10.10
2023-03-21T10:37:26.005Z,9.23
2023-03-21T10:39:56.265Z,11.30
2023-03-21T10:42:31.478Z,17.35
2023-03-21T10:44:59.661Z,10.80
2023-03-21T10:47:35.327Z,13.48
2023-03-21T10:50:09.165Z,8.98
2023-03-21T10:52:39.537Z,10.15
2023-03-21T10:55:18.942Z,14.60
2023-03-21T10:57:48.485Z,13.60
2023-03-21T11:00:23.932Z,8.90
2023-03-21T11:02:54.907Z,11.52
2023-03-21T11:05:45.624Z,10.43
2023-03-21T11:08:16.968Z,14.50
2023-03-21T11:11:02.613Z,17.00
2023-03-21T11:13:39.667Z,9.70
2023-03-21T11:16:19.566Z,12.40
2023-03-21T11:18:52.947Z,12.18
2023-03-21T11:21:22.213Z,11.80
2023-03-21T11:23:52.838Z,13.48
2023-03-21T11:26:30.864Z,16.92
2023-03-21T11:28:59.189Z,10.45
2023-03-21T11:31:41.156Z,9.00
2023-03-21T11:34:10.931Z,10.15
2023-03-21T11:36:39.974Z,15.77
2023-03-21T11:39:41.107Z,18.42
2023-03-21T11:42:33.623Z,16.45
2023-03-21T11:45:14.879Z,15.23
2023-03-21T11:47:42.620Z,12.32
2023-03-21T11:50:17.616Z,13.25
2023-03-21T11:52:59.564Z,11.07
2023-03-21T11:55:48.760Z,10.07
2023-03-21T11:58:45.576Z,13.15
2023-03-21T12:01:35.454Z,10.15
2023-03-21T12:04:05.625Z,12.95
2023-03-21T12:06:37.767Z,14.43
2023-03-21T12:09:23.529Z,10.63
2023-03-21T12:12:11.944Z,11.95
2023-03-21T12:14:55.334Z,15.23
2023-03-21T12:17:54.954Z,13.57
2023-03-21T12:20:33.768Z,12.35
2023-03-21T12:23:20.132Z,14.07
2023-03-21T12:26:15.549Z,14.80
2023-03-21T12:28:58.941Z,16.75
2023-03-21T12:31:38.432Z,11.48
2023-03-21T12:34:27.744Z,13.38
2023-03-21T12:37:32.070Z,13.93
2023-03-21T12:40:25.779Z,10.07
2023-03-21T12:43:25.456Z,7.90
2023-03-21T12:46:00.074Z,9.80
2023-03-21T12:48:47.485Z,8.50
2023-03-21T12:51:20.259Z,7.80
2023-03-21T12:53:53.417Z,7.00
2023-03-21T12:56:38.863Z,11.32
2023-03-21T12:59:26.235Z,8.93
2023-03-21T13:01:59.198Z,6.90
2023-03-21T13:04:41.397Z,9.65
2023-03-21T13:07:13.700Z,12.60
2023-03-21T13:09:42.807Z,7.63
2023-03-21T13:12:19.245Z,10.98
2023-03-21T13:15:18.372Z,10.70
2023-03-21T13:18:31.177Z,10.18
2023-03-21T13:21:03.771Z,11.98
2023-03-21T13:23:37.802Z,8.35
2023-03-21T13:26:11.256Z,8.82
2023-03-21T13:28:41.774Z,7.30
2023-03-21T13:31:18.668Z,8.98
2023-03-21T13:33:52.417Z,8.88
2023-03-21T13:36:26.725Z,12.02
2023-03-21T13:39:00.616Z,10.13
2023-03-21T13:41:35.250Z,8.65
2023-03-21T13:44:02.843Z,12.13
2023-03-21T13:46:34.177Z,8.63
2023-03-21T13:49:10.936Z,10.43
2023-03-21T13:51:46.476Z,6.57
2023-03-21T13:54:36.758Z,9.93
2023-03-21T13:57:07.863Z,15.63
2023-03-21T13:59:45.750Z,10.63
2023-03-21T14:02:13.192Z,12.55
2023-03-21T14:04:54.184Z,9.93
2023-03-21T14:07:34.143Z,13.23
2023-03-21T14:10:06.537Z,8.03
2023-03-21T14:12:43.578Z,8.68
2023-03-21T14:15:31.090Z,13.60
2023-03-21T14:18:10.852Z,10.60
2023-03-21T14:20:58.539Z,7.20
2023-03-21T14:23:26.731Z,10.77
2023-03-21T14:25:54.487Z,11.57
2023-03-21T14:28:26.109Z,11.18
2023-03-21T14:30:57.914Z,13.55
2023-03-21T14:33:33.826Z,9.07
2023-03-21T14:36:06.363Z,12.93
2023-03-21T14:38:38.238Z,17.27
2023-03-21T14:41:06.464Z,7.68
2023-03-21T14:43:34.384Z,12.80
2023-03-21T14:46:02.364Z,11.68
2023-03-21T14:48:35.716Z,17.33
2023-03-21T14:51:08.186Z,11.27
2023-03-21T14:53:41.791Z,11.20
2023-03-21T14:56:23.418Z,8.77
2023-03-21T14:58:51.446Z,10.30
2023-03-21T15:01:29.289Z,11.05
2023-03-21T15:03:58.708Z,13.80
2023-03-21T15:06:27.996Z,9.95
2023-03-21T15:09:05.736Z,12.60
2023-03-21T15:11:39.335Z,8.68
2023-03-21T15:14:09.723Z,13.68
2023-03-21T15:16:38.065Z,11.23
2023-03-21T15:19:06.126Z,8.32
2023-03-21T15:21:39.073Z,13.40
2023-03-21T15:24:28.135Z,10.00
2023-03-21T15:27:01.642Z,11.40
2023-03-21T15:29:29.566Z,10.15
2023-03-21T15:31:57.809Z,6.80
2023-03-21T15:34:28.966Z,7.38
2023-03-21T15:37:00.209Z,14.82
2023-03-21T15:39:29.921Z,5.65
2023-03-21T15:42:00.898Z,7.95
2023-03-21T15:44:29.904Z,11.63
2023-03-21T15:46:58.224Z,14.52
2023-03-21T15:49:44.019Z,9.93
2023-03-21T15:52:17.836Z,9.88
2023-03-21T15:54:56.618Z,12.23
2023-03-21T15:57:30.064Z,13.30
2023-03-21T16:00:11.994Z,7.18
2023-03-21T16:02:41.869Z,12.95
2023-03-21T16:05:28.372Z,10.25
2023-03-21T16:08:00.494Z,10.60
2023-03-21T16:10:28.542Z,12.43
2023-03-21T16:12:56.107Z,5.53
2023-03-21T16:15:26.942Z,6.93
2023-03-21T16:18:08.513Z,11.63
2023-03-21T16:20:43.893Z,7.03
2023-03-21T16:23:17.294Z,8.80
2023-03-21T16:25:45.697Z,7.25
2023-03-21T16:28:18.823Z,6.75
2023-03-21T16:30:46.475Z,5.38
2023-03-21T16:33:14.588Z,6.95
2023-03-21T16:35:42.158Z,4.30
2023-03-21T16:38:11.596Z,6.43
2023-03-21T16:40:41.466Z,5.45
2023-03-21T16:43:09.263Z,7.57
2023-03-21T16:45:37.026Z,11.70
2023-03-21T16:48:05.228Z,4.47
2023-03-21T16:50:36.113Z,4.50
2023-03-21T16:53:04.317Z,6.45
2023-03-21T16:55:34.720Z,8.10
2023-03-21T16:58:02.677Z,6.85
2023-03-21T17:00:31.537Z,5.50
2023-03-21T17:03:03.133Z,3.80
2023-03-21T17:05:31.421Z,4.40
2023-03-21T17:08:02.047Z,5.15
2023-03-21T17:10:32.375Z,7.20
2023-03-21T17:13:00.476Z,10.52
2023-03-21T17:15:27.985Z,6.00
2023-03-21T17:17:56.399Z,7.85
2023-03-21T17:20:33.148Z,10.95
2023-03-21T17:23:01.511Z,8.95
2023-03-21T17:25:29.113Z,7.57
2023-03-21T17:27:56.665Z,10.23
2023-03-21T17:30:34.865Z,7.68
2023-03-21T17:33:02.730Z,15.38
2023-03-21T17:35:30.211Z,8.13
2023-03-21T17:37:59.231Z,7.00
2023-03-21T17:40:29.629Z,10.77
2023-03-21T17:42:58.597Z,9.57
2023-03-21T17:45:27.000Z,9.95
2023-03-21T17:47:55.558Z,6.07
2023-03-21T17:50:28.416Z,8.38
2023-03-21T17:52:57.362Z,7.47
2023-03-21T17:55:24.951Z,8.80
2023-03-21T17:57:53.322Z,9.15
2023-03-21T18:00:25.059Z,10.38
2023-03-21T18:02:53.263Z,16.88
2023-03-21T18:05:22.245Z,8.73
2023-03-21T18:08:10.701Z,6.55
2023-03-21T18:10:40.316Z,10.88
2023-03-21T18:13:08.188Z,9.13
2023-03-21T18:15:37.988Z,7.85
2023-03-21T18:18:06.174Z,7.97
2023-03-21T18:23:21.639Z,9.73
2023-03-21T18:25:49.449Z,9.05
2023-03-21T18:28:20.416Z,6.13
2023-03-21T18:31:07.722Z,7.17
2023-03-21T18:33:40.223Z,7.88
2023-03-21T18:36:13.947Z,8.07
2023-03-21T18:38:42.104Z,6.38
2023-03-21T18:41:10.124Z,8.40
2023-03-21T18:44:05.682Z,11.93
2023-03-21T18:46:26.604Z,7.97
2023-03-21T18:48:55.282Z,12.60
2023-03-21T18:51:23.115Z,7.43
2023-03-21T18:53:50.663Z,9.05
2023-03-21T18:57:03.563Z,8.05
2023-03-21T18:59:07.415Z,13.20
2023-03-21T19:01:35.789Z,7.25
2023-03-21T19:04:20.829Z,9.77
2023-03-21T19:06:51.258Z,9.48
2023-03-21T19:09:18.832Z,8.52
2023-03-21T19:11:46.706Z,10.57
2023-03-21T19:14:16.965Z,8.80
2023-03-21T19:17:26.477Z,10.50
2023-03-21T19:19:33.795Z,10.00
2023-03-21T19:22:01.601Z,12.27
2023-03-21T19:24:29.314Z,10.32
2023-03-21T19:26:56.956Z,8.93
2023-03-21T19:29:25.182Z,11.02
2023-03-21T19:31:53.239Z,12.18
2023-03-21T19:34:21.239Z,9.93
2023-03-21T19:36:52.057Z,11.85
2023-03-21T19:39:22.613Z,10.13
2023-03-21T19:41:50.945Z,16.27
2023-03-21T19:44:20.963Z,13.05
2023-03-21T19:46:50.970Z,7.28
2023-03-21T19:49:22.622Z,10.27
2023-03-21T19:51:53.747Z,13.18
2023-03-21T19:54:21.668Z,10.35
2023-03-21T19:56:49.461Z,12.98
2023-03-21T19:59:17.918Z,9.00
2023-03-21T20:01:47.100Z,9.45
2023-03-21T20:04:14.939Z,6.47
2023-03-21T20:06:42.429Z,11.43
2023-03-21T20:09:50.553Z,8.70
2023-03-21T20:12:00.460Z,8.98
2023-03-21T20:14:27.918Z,8.80
2023-03-21T20:16:57.113Z,7.35
2023-03-21T20:19:25.374Z,9.98
2023-03-21T20:21:58.888Z,12.38
2023-03-21T20:24:27.486Z,7.88
2023-03-21T20:26:55.662Z,11.45
2023-03-21T20:32:11.375Z,8.02
2023-03-21T20:34:39.359Z,13.38
2023-03-21T20:37:07.083Z,13.20
2023-03-21T20:39:34.839Z,12.57
2023-03-21T20:42:02.912Z,12.32
2023-03-21T20:45:01.187Z,10.50
2023-03-21T20:47:18.843Z,13.70
2023-03-21T20:49:46.631Z,11.00
2023-03-21T20:52:52.234Z,12.10
2023-03-21T20:55:03.034Z,12.10
2023-03-21T20:57:30.539Z,14.60
2023-03-21T20:59:58.526Z,15.30
2023-03-21T21:02:26.464Z,11.52
2023-03-21T21:05:24.126Z,9.57
2023-03-21T21:07:45.975Z,8.40
2023-03-21T21:10:16.156Z,8.88
2023-03-21T21:12:45.246Z,8.05
2023-03-21T21:15:16.624Z,8.65
2023-03-21T21:20:33.807Z,10.32
2023-03-21T21:23:01.367Z,8.07
2023-03-21T21:25:30.573Z,10.20
2023-03-21T21:27:58.180Z,13.10
2023-03-21T21:30:26.263Z,8.65
2023-03-21T21:32:53.976Z,10.00
2023-03-21T21:35:22.380Z,10.05
2023-03-21T21:37:51.078Z,7.07
2023-03-21T21:40:20.555Z,10.07
2023-03-21T21:42:48.261Z,6.88
2023-03-21T21:45:15.887Z,8.32
2023-03-21T21:47:45.408Z,11.45
2023-03-21T21:50:13.228Z,16.83
2023-03-21T21:52:43.458Z,8.20
2023-03-21T21:55:13.083Z,9.02
2023-03-21T21:57:40.924Z,11.23
2023-03-21T22:00:13.108Z,12.05
2023-03-21T22:02:41.745Z,10.90
2023-03-21T22:05:10.521Z,13.23
2023-03-21T22:07:40.089Z,11.98
2023-03-21T22:10:08.141Z,12.60
2023-03-21T22:12:36.182Z,10.85
2023-03-21T22:15:06.873Z,15.32
2023-03-21T22:17:35.154Z,6.57
2023-03-21T22:20:06.421Z,7.28
2023-03-21T22:22:35.391Z,10.23
2023-03-21T22:25:04.040Z,12.98
2023-03-21T22:27:31.616Z,11.43
2023-03-21T22:30:04.301Z,4.38
2023-03-21T22:32:33.203Z,4.65
2023-03-21T22:35:02.330Z,7.80
2023-03-21T22:37:34.112Z,10.48
2023-03-21T22:40:01.978Z,6.63
2023-03-21T22:42:29.573Z,5.30
2023-03-21T22:44:57.056Z,12.70
2023-03-21T22:47:24.545Z,12.45
2023-03-21T22:49:52.194Z,13.50
2023-03-21T22:52:19.954Z,12.45
2023-03-21T22:54:49.085Z,12.15
2023-03-21T22:57:17.656Z,7.15
2023-03-21T22:59:45.196Z,6.93
2023-03-21T23:02:12.724Z,14.02
2023-03-21T23:04:40.489Z,9.43
2023-03-21T23:07:08.513Z,9.27
2023-03-21T23:09:36.151Z,7.45
2023-03-21T23:12:03.737Z,9.43
2023-03-21T23:14:31.299Z,13.05
2023-03-21T23:17:00.115Z,15.38
2023-03-21T23:19:29.359Z,7.93
2023-03-21T23:21:57.124Z,8.85
2023-03-21T23:24:25.468Z,5.38
2023-03-21T23:26:53.187Z,5.03
2023-03-21T23:29:20.869Z,7.25
2023-03-21T23:31:48.396Z,9.85
2023-03-21T23:34:16.154Z,7.80
2023-03-21T23:36:43.691Z,9.00
2023-03-21T23:39:11.286Z,6.57
2023-03-21T23:41:38.779Z,6.35
2023-03-21T23:44:06.534Z,7.22
2023-03-21T23:46:34.174Z,11.73
2023-03-21T23:49:01.702Z,3.28
2023-03-21T23:51:29.270Z,6.88
2023-03-21T23:53:57.321Z,9.90
2023-03-21T23:56:26.808Z,10.18
2023-03-21T23:58:54.394Z,8.65
